Weather at 29NC Airport [CLOSED]

Public forecast

Using degrees Fahrenheit for public forecast. Weather courtesy of forecast.io.

Closest aviation weather report (METAR) to 29NC Airport

Report is more than 2 hours old.

Closest report is Shelby-Cleveland County Regional Airport, 3.6 nm (6.6 km) SSE. Retrieved 2020/10/26 03:35 UTC (6 hours ago):

KEHO 260335Z AUTO 03006KT 5SM BR SCT004 OVC007 12/12 A3011 RMK AO2 T01220122

Closest aviation forecast (TAF) to 29NC Airport

Closest forecast is Hickory Regional Airport, 28.2 nm (52.3 km) NNE. Retrieved 2020/10/26 06:42 UTC (2 hours ago):

TAF KHKY 260539Z 2606/2706 05005KT P6SM OVC005 FM261000 03003KT 5SM BR OVC006 FM261400 06003KT P6SM BKN006 FM261600 00000KT P6SM BKN015 FM261900 00000KT P6SM BKN030 FM262200 VRB02KT P6SM SCT030 FM270400 VRB02KT 5SM BR SCT015 BKN030